Time;durP1;ratioP1;P1;durP2;ratioP2;P2;SDS_P1;SDS_P2;PMS_P1;PMS_P2;Temp;Humidity;BMP_temperature;BMP_pressure;BME280_temperature;BME280_humidity;BME280_pressure;Samples;Min_cycle;Max_cycle;Signal;HPM_P1;HPM_P2
2021/12/17 00:03:15;;;;;;;91.30;16.20;;;;;7.20;98227.00;;;;8399731;28;20231;-90
2021/12/17 00:07:20;;;;;;;96.13;16.27;;;;;7.20;98230.00;;;;8398454;28;20245;-89
2021/12/17 00:11:54;;;;;;;65.10;15.23;;;;;7.00;98208.00;;;;8399590;28;20208;-90
2021/12/17 00:15:58;;;;;;;63.87;14.77;;;;;6.80;98221.00;;;;8396427;28;20222;-81
2021/12/17 00:51:25;;;;;;;392.83;16.67;;;;;5.40;98186.00;;;;8275806;28;20656;-90
2021/12/17 00:55:28;;;;;;;358.80;16.87;;;;;5.40;98171.00;;;;8401218;28;20249;-92
2021/12/17 00:59:31;;;;;;;339.57;16.67;;;;;5.20;98173.00;;;;8399917;28;20230;-91
2021/12/17 01:04:05;;;;;;;337.80;17.00;;;;;5.00;98171.00;;;;8399525;28;20235;-90
2021/12/17 01:08:09;;;;;;;318.20;16.60;;;;;4.70;98164.00;;;;8398359;28;20545;-88
2021/12/17 01:12:43;;;;;;;343.07;17.73;;;;;4.50;98180.00;;;;8398442;28;20215;-87
2021/12/17 01:16:50;;;;;;;289.27;15.67;;;;;4.20;98169.00;;;;8396884;28;20217;-84
2021/12/17 01:21:19;;;;;;;254.80;15.93;;;;;3.90;98174.00;;;;8396759;28;20223;-84
2021/12/17 01:25:48;;;;;;;54.17;9.27;;;;;3.60;98180.00;;;;8395703;28;20215;-85
2021/12/17 01:42:55;;;;;;;21.33;7.97;;;;;3.30;98165.00;;;;8395775;28;20305;-86
2021/12/17 01:46:59;;;;;;;58.90;8.70;;;;;3.30;98165.00;;;;8395923;28;20234;-87
2021/12/17 01:56:28;;;;;;;148.73;10.00;;;;;3.20;98178.00;;;;8268918;28;20225;-86
2021/12/17 02:00:37;;;;;;;109.47;8.30;;;;;3.20;98174.00;;;;8394194;28;20222;-86
2021/12/17 02:04:41;;;;;;;93.30;8.30;;;;;3.10;98174.00;;;;8395159;28;20225;-85
2021/12/17 02:08:47;;;;;;;78.13;7.60;;;;;3.10;98176.00;;;;8394399;28;20226;-85
2021/12/17 02:19:25;;;;;;;146.70;9.40;;;;;3.10;98182.00;;;;8395324;28;20223;-85
2021/12/17 02:22:33;;;;;;;81.77;6.93;;;;;3.00;98179.00;;;;8352525;28;20227;-86
2021/12/17 02:31:06;;;;;;;52.27;6.10;;;;;3.00;98147.00;;;;8395858;28;20657;-87
2021/12/17 02:35:27;;;;;;;171.47;11.13;;;;;3.10;98145.00;;;;8395377;28;20227;-87
2021/12/17 02:40:05;;;;;;;134.57;8.40;;;;;3.00;98153.00;;;;8396481;28;20230;-85
2021/12/17 02:48:33;;;;;;;149.17;10.87;;;;;3.10;98142.00;;;;8395818;28;20233;-87
2021/12/17 02:52:38;;;;;;;146.03;9.77;;;;;3.00;98142.00;;;;8394811;28;20253;-85
2021/12/17 02:56:43;;;;;;;137.37;9.27;;;;;2.90;98138.00;;;;8395129;28;20553;-87
2021/12/17 03:00:46;;;;;;;92.87;8.10;;;;;3.00;98142.00;;;;8394545;28;20278;-87
2021/12/17 03:04:50;;;;;;;93.67;8.10;;;;;3.00;98141.00;;;;8379753;22;20236;-84
2021/12/17 03:08:53;;;;;;;108.00;7.07;;;;;3.10;98132.00;;;;8359894;28;20233;-83
2021/12/17 03:13:02;;;;;;;161.40;9.70;;;;;3.20;98116.00;;;;8369402;28;20223;-84
2021/12/17 03:17:09;;;;;;;54.43;6.20;;;;;3.10;98122.00;;;;8385440;28;20223;-82
2021/12/17 03:25:33;;;;;;;112.40;8.17;;;;;2.90;98121.00;;;;8355092;28;20262;-85
2021/12/17 03:29:38;;;;;;;63.93;5.43;;;;;2.80;98127.00;;;;8366087;28;20635;-85
2021/12/17 03:33:43;;;;;;;32.90;4.73;;;;;2.60;98121.00;;;;8372850;28;20232;-84
2021/12/17 03:37:47;;;;;;;116.67;7.47;;;;;2.60;98114.00;;;;8356016;28;20243;-80
2021/12/17 03:41:51;;;;;;;32.07;4.60;;;;;2.50;98107.00;;;;8357163;28;20596;-83
2021/12/17 03:45:56;;;;;;;20.67;4.40;;;;;2.50;98124.00;;;;8373976;28;20222;-83
2021/12/17 03:49:59;;;;;;;17.33;4.63;;;;;2.40;98132.00;;;;8376551;28;20232;-83
2021/12/17 03:54:03;;;;;;;95.87;7.13;;;;;2.30;98129.00;;;;8368385;28;20650;-85
2021/12/17 03:58:07;;;;;;;10.23;4.13;;;;;2.20;98115.00;;;;8359713;28;20223;-84
2021/12/17 04:02:12;;;;;;;7.97;4.03;;;;;2.10;98115.00;;;;8363702;28;20274;-83
2021/12/17 04:06:15;;;;;;;13.23;4.43;;;;;2.10;98110.00;;;;8368612;28;20230;-83
2021/12/17 04:10:19;;;;;;;33.67;4.80;;;;;2.10;98109.00;;;;8370389;28;20222;-80
2021/12/17 04:14:32;;;;;;;58.73;5.63;;;;;2.20;98126.00;;;;8365690;28;20249;-78
2021/12/17 04:18:40;;;;;;;38.17;5.10;;;;;2.20;98140.00;;;;8367021;28;20245;-82
2021/12/17 04:22:43;;;;;;;92.90;5.70;;;;;2.20;98130.00;;;;8376169;28;20220;-81
2021/12/17 04:26:46;;;;;;;150.87;7.83;;;;;2.20;98131.00;;;;8385790;28;20237;-79
2021/12/17 04:30:51;;;;;;;45.80;5.00;;;;;2.30;98136.00;;;;8380241;28;20231;-80
2021/12/17 04:34:55;;;;;;;38.53;4.13;;;;;2.40;98139.00;;;;8380301;28;20224;-81
2021/12/17 04:39:00;;;;;;;66.37;4.83;;;;;2.40;98137.00;;;;8380684;28;20316;-82
2021/12/17 04:43:14;;;;;;;46.20;4.50;;;;;2.40;98141.00;;;;8387635;28;20315;-83
2021/12/17 05:00:24;;;;;;;50.33;4.97;;;;;2.50;98129.00;;;;8376011;28;20864;-79
2021/12/17 05:04:28;;;;;;;23.43;3.30;;;;;2.50;98135.00;;;;8380033;28;20730;-78
2021/12/17 05:08:34;;;;;;;69.47;4.83;;;;;2.50;98130.00;;;;8384219;28;20838;-78
2021/12/17 05:21:22;;;;;;;39.63;4.20;;;;;2.30;98146.00;;;;8375575;28;20246;-77
2021/12/17 05:25:29;;;;;;;36.90;3.70;;;;;2.20;98156.00;;;;8379809;28;20218;-77
2021/12/17 05:29:32;;;;;;;53.83;4.50;;;;;2.20;98167.00;;;;8377405;28;20229;-76
2021/12/17 05:33:36;;;;;;;11.97;2.67;;;;;2.10;98176.00;;;;8362555;28;20240;-78
2021/12/17 05:37:39;;;;;;;7.20;2.57;;;;;2.10;98172.00;;;;8361038;28;20261;-77
2021/12/17 05:41:45;;;;;;;51.63;4.77;;;;;2.00;98166.00;;;;8366276;28;20253;-78
2021/12/17 05:46:02;;;;;;;10.13;2.93;;;;;1.90;98173.00;;;;8340206;28;20231;-79
2021/12/17 05:50:07;;;;;;;10.43;2.90;;;;;1.90;98169.00;;;;8340404;28;20257;-78
2021/12/17 05:54:10;;;;;;;8.93;3.00;;;;;1.80;98162.00;;;;8350376;28;20232;-78
2021/12/17 05:58:15;;;;;;;6.37;2.80;;;;;1.80;98169.00;;;;8355410;28;20637;-79
2021/12/17 06:02:19;;;;;;;7.47;2.90;;;;;1.80;98174.00;;;;8370190;28;20340;-78
2021/12/17 06:06:27;;;;;;;24.27;2.90;;;;;1.80;98154.00;;;;8363504;28;20223;-77
2021/12/17 06:10:31;;;;;;;5.33;2.83;;;;;1.70;98162.00;;;;8343887;28;20340;-75
2021/12/17 06:14:36;;;;;;;13.83;2.97;;;;;1.80;98172.00;;;;8336776;28;20260;-77
2021/12/17 06:18:39;;;;;;;18.37;2.83;;;;;1.90;98172.00;;;;8349410;28;20639;-77
2021/12/17 06:22:43;;;;;;;25.90;3.17;;;;;2.00;98162.00;;;;8352174;28;20233;-76
2021/12/17 06:26:46;;;;;;;20.13;2.83;;;;;2.10;98161.00;;;;8347855;28;20540;-76
2021/12/17 06:30:51;;;;;;;28.37;3.60;;;;;2.20;98167.00;;;;8337738;28;21165;-78
2021/12/17 06:34:55;;;;;;;18.13;3.73;;;;;2.20;98152.00;;;;8336271;28;20743;-78
2021/12/17 06:38:59;;;;;;;29.33;3.67;;;;;2.30;98148.00;;;;8343644;28;20336;-72
2021/12/17 06:43:03;;;;;;;43.33;4.87;;;;;2.30;98138.00;;;;8340656;28;20357;-76
2021/12/17 06:47:12;;;;;;;49.67;3.80;;;;;2.30;98147.00;;;;8340708;28;20959;-75
2021/12/17 06:56:29;;;;;;;11.10;3.37;;;;;2.40;98143.00;;;;8355501;28;20655;-82
2021/12/17 07:00:41;;;;;;;13.20;3.30;;;;;2.40;98145.00;;;;8331104;28;20984;-73
2021/12/17 07:18:00;;;;;;;52.00;4.43;;;;;2.10;98160.00;;;;8343589;28;20259;-76
2021/12/17 07:22:17;;;;;;;35.40;4.17;;;;;2.10;98163.00;;;;8373477;28;20277;-79
2021/12/17 07:35:39;;;;;;;21.17;3.20;;;;;2.20;98162.00;;;;8333855;28;20225;-75
2021/12/17 07:39:58;;;;;;;34.63;3.37;;;;;2.20;98160.00;;;;8343828;28;20237;-78
2021/12/17 07:44:05;;;;;;;10.67;2.73;;;;;2.20;98162.00;;;;8357393;28;20227;-74
2021/12/17 07:48:08;;;;;;;9.27;2.57;;;;;2.20;98170.00;;;;8370537;28;20230;-73
2021/12/17 07:52:11;;;;;;;28.50;2.93;;;;;2.10;98170.00;;;;8365493;28;20227;-74
2021/12/17 07:56:18;;;;;;;28.53;8.90;;;;;2.10;98166.00;;;;8362452;28;20683;-74
2021/12/17 08:00:22;;;;;;;1999.90;796.40;;;;;2.00;98162.00;;;;8362421;28;20275;-74
2021/12/17 08:04:25;;;;;;;179.93;42.90;;;;;2.00;98164.00;;;;8369316;28;20786;-77
2021/12/17 08:08:28;;;;;;;37.40;9.97;;;;;2.10;98162.00;;;;8358027;28;20711;-74
2021/12/17 08:12:33;;;;;;;143.87;35.87;;;;;2.10;98177.00;;;;8354185;28;20224;-75
2021/12/17 08:16:43;;;;;;;65.37;17.03;;;;;2.20;98187.00;;;;8377570;28;20252;-74
2021/12/17 08:25:13;;;;;;;15.37;3.90;;;;;2.30;98171.00;;;;8371471;28;20222;-76
2021/12/17 08:29:27;;;;;;;26.20;4.60;;;;;2.30;98182.00;;;;8363886;28;20229;-77
2021/12/17 08:33:31;;;;;;;26.57;7.93;;;;;2.50;98170.00;;;;8355440;28;20723;-74
2021/12/17 08:37:34;;;;;;;30.53;12.80;;;;;2.50;98166.00;;;;8360897;28;20258;-73
2021/12/17 08:41:39;;;;;;;85.57;49.53;;;;;2.50;98171.00;;;;8364503;28;20364;-75
2021/12/17 08:45:44;;;;;;;20.87;8.67;;;;;2.60;98167.00;;;;8369239;28;20223;-75
2021/12/17 08:49:48;;;;;;;37.07;5.10;;;;;2.60;98164.00;;;;8366008;28;20644;-74
2021/12/17 08:53:52;;;;;;;48.73;6.20;;;;;2.70;98156.00;;;;8371489;28;20247;-72
2021/12/17 08:57:55;;;;;;;46.53;4.13;;;;;2.80;98162.00;;;;8366051;28;20214;-75
2021/12/17 09:02:00;;;;;;;60.27;6.00;;;;;2.90;98160.00;;;;8367203;28;20581;-73
2021/12/17 09:06:04;;;;;;;27.80;3.90;;;;;2.90;98164.00;;;;8360970;28;20676;-75
2021/12/17 09:10:10;;;;;;;42.87;4.43;;;;;3.00;98169.00;;;;8354247;28;20834;-72
2021/12/17 09:14:13;;;;;;;29.60;4.07;;;;;3.10;98162.00;;;;8364024;28;20223;-74
2021/12/17 09:18:18;;;;;;;205.37;11.23;;;;;3.30;98160.00;;;;8377086;28;20218;-74
2021/12/17 09:22:22;;;;;;;129.93;8.27;;;;;3.30;98166.00;;;;8362671;28;20265;-74
2021/12/17 09:26:25;;;;;;;120.17;7.93;;;;;3.30;98172.00;;;;8356163;28;20316;-74
2021/12/17 09:30:28;;;;;;;61.40;8.47;;;;;3.40;98162.00;;;;8376079;28;20242;-75
2021/12/17 09:34:33;;;;;;;76.77;14.53;;;;;3.50;98157.00;;;;8354946;28;20841;-75
2021/12/17 09:38:36;;;;;;;54.43;4.50;;;;;3.60;98152.00;;;;8369285;28;20240;-75
2021/12/17 09:42:42;;;;;;;47.17;4.77;;;;;3.60;98162.00;;;;8348651;28;20333;-74
2021/12/17 09:46:48;;;;;;;44.60;4.27;;;;;3.70;98159.00;;;;8360965;28;20232;-75
2021/12/17 09:50:54;;;;;;;66.33;5.03;;;;;3.70;98161.00;;;;8365609;28;20247;-75
2021/12/17 09:54:58;;;;;;;81.90;5.73;;;;;3.80;98155.00;;;;8375564;28;20255;-71
2021/12/17 09:59:02;;;;;;;36.87;3.70;;;;;4.00;98168.00;;;;8368898;28;20241;-71
2021/12/17 10:03:08;;;;;;;38.33;3.83;;;;;4.20;98161.00;;;;8376432;28;20266;-74
2021/12/17 10:07:24;;;;;;;70.57;4.97;;;;;4.20;98162.00;;;;8368692;28;20892;-72
2021/12/17 10:11:29;;;;;;;51.03;4.83;;;;;4.20;98157.00;;;;8370510;28;20242;-72
2021/12/17 10:15:36;;;;;;;25.93;4.40;;;;;4.30;98159.00;;;;8355022;28;20986;-82
2021/12/17 10:19:47;;;;;;;24.03;4.17;;;;;4.40;98159.00;;;;8370662;28;20714;-75
2021/12/17 10:23:54;;;;;;;64.73;5.43;;;;;4.70;98167.00;;;;8365745;28;20258;-73
2021/12/17 10:27:59;;;;;;;112.20;6.57;;;;;5.00;98175.00;;;;8373020;28;20848;-72
2021/12/17 10:32:02;;;;;;;31.60;4.57;;;;;5.30;98169.00;;;;8366008;28;20218;-70
2021/12/17 10:36:11;;;;;;;76.00;7.00;;;;;5.50;98172.00;;;;8355357;28;20230;-77
2021/12/17 10:40:19;;;;;;;52.53;6.33;;;;;5.80;98177.00;;;;8353545;28;20246;-78
2021/12/17 10:44:23;;;;;;;92.77;7.57;;;;;6.20;98178.00;;;;8375677;28;20240;-71
2021/12/17 10:48:31;;;;;;;30.00;5.60;;;;;6.30;98190.00;;;;8380727;28;20673;-76
2021/12/17 10:52:40;;;;;;;24.90;6.37;;;;;5.70;98189.00;;;;8382939;28;20231;-75
2021/12/17 10:56:48;;;;;;;45.60;5.70;;;;;5.20;98188.00;;;;8376397;28;20318;-74
2021/12/17 11:00:58;;;;;;;55.80;6.47;;;;;4.80;98172.00;;;;8372003;28;20283;-73
2021/12/17 11:05:11;;;;;;;85.20;7.37;;;;;4.60;98182.00;;;;8375235;28;20236;-71
2021/12/17 11:09:40;;;;;;;170.17;9.27;;;;;4.40;98179.00;;;;8375187;28;20893;-76
2021/12/17 11:13:57;;;;;;;124.37;8.60;;;;;4.30;98179.00;;;;8378205;28;20235;-71
2021/12/17 11:18:02;;;;;;;126.10;7.40;;;;;4.20;98181.00;;;;8378889;28;20604;-74
2021/12/17 11:22:06;;;;;;;141.57;8.13;;;;;4.10;98186.00;;;;8369704;28;20231;-73
2021/12/17 11:26:09;;;;;;;133.00;8.57;;;;;4.10;98179.00;;;;8378378;28;20696;-73
2021/12/17 11:30:17;;;;;;;40.47;6.93;;;;;4.20;98163.00;;;;8380232;28;20270;-71
2021/12/17 11:34:21;;;;;;;56.23;8.67;;;;;4.20;98158.00;;;;8356383;28;20703;-72
2021/12/17 11:38:35;;;;;;;49.70;8.70;;;;;4.30;98149.00;;;;8370230;28;20729;-72
2021/12/17 11:43:04;;;;;;;57.67;9.10;;;;;4.40;98150.00;;;;8374744;28;20772;-73
2021/12/17 11:47:11;;;;;;;69.40;8.97;;;;;4.50;98140.00;;;;8368306;28;20219;-70
2021/12/17 11:51:17;;;;;;;44.57;7.73;;;;;4.60;98150.00;;;;8366341;28;20234;-73
2021/12/17 11:55:28;;;;;;;71.37;9.93;;;;;4.70;98154.00;;;;8371196;28;20240;-72
2021/12/17 11:59:38;;;;;;;38.60;7.10;;;;;4.70;98160.00;;;;8373053;28;20246;-73
2021/12/17 12:03:43;;;;;;;63.77;10.13;;;;;4.70;98162.00;;;;8367033;28;20222;-72
2021/12/17 12:07:49;;;;;;;84.00;11.03;;;;;4.70;98141.00;;;;8349938;28;20236;-76
2021/12/17 12:12:10;;;;;;;50.87;9.00;;;;;4.70;98151.00;;;;8348738;28;20230;-73
2021/12/17 12:16:19;;;;;;;36.73;7.57;;;;;4.70;98154.00;;;;8350296;28;20222;-71
2021/12/17 12:20:51;;;;;;;64.30;9.17;;;;;4.70;98157.00;;;;8378063;28;20247;-73
2021/12/17 12:25:27;;;;;;;35.73;7.27;;;;;4.80;98146.00;;;;8369972;28;20213;-76
2021/12/17 12:29:30;;;;;;;46.40;9.50;;;;;4.90;98148.00;;;;8366161;28;20240;-75
2021/12/17 12:33:34;;;;;;;72.70;11.37;;;;;5.00;98147.00;;;;8377637;28;20541;-79
2021/12/17 12:37:39;;;;;;;34.40;7.27;;;;;5.00;98138.00;;;;8385643;28;20944;-77
2021/12/17 12:41:46;;;;;;;43.83;7.90;;;;;5.00;98137.00;;;;8384191;28;20234;-74
2021/12/17 12:45:49;;;;;;;42.50;7.53;;;;;5.10;98146.00;;;;8362827;28;20593;-77
2021/12/17 12:49:59;;;;;;;49.70;7.90;;;;;5.10;98158.00;;;;8373475;28;20227;-77
2021/12/17 12:54:07;;;;;;;45.73;9.07;;;;;5.10;98156.00;;;;8374885;28;20238;-76
2021/12/17 12:58:13;;;;;;;45.83;9.13;;;;;5.10;98149.00;;;;8358572;28;20243;-78
2021/12/17 13:02:16;;;;;;;49.23;9.60;;;;;5.20;98144.00;;;;8365729;28;20800;-78
2021/12/17 13:06:22;;;;;;;38.80;8.47;;;;;5.20;98143.00;;;;8364200;28;20234;-78
2021/12/17 13:10:30;;;;;;;41.03;9.47;;;;;5.10;98142.00;;;;8373620;28;20230;-77
2021/12/17 13:14:33;;;;;;;29.80;7.80;;;;;5.10;98147.00;;;;8363632;28;20241;-77
2021/12/17 13:23:12;;;;;;;37.90;8.77;;;;;5.00;98141.00;;;;8366126;28;20226;-78
2021/12/17 13:27:17;;;;;;;32.50;8.43;;;;;5.00;98141.00;;;;8367101;28;20708;-77
2021/12/17 13:31:36;;;;;;;40.20;7.83;;;;;5.00;98139.00;;;;8366030;28;20227;-76
2021/12/17 13:35:39;;;;;;;43.67;8.93;;;;;5.10;98143.00;;;;8357822;28;20228;-75
2021/12/17 13:39:45;;;;;;;38.73;8.60;;;;;5.10;98135.00;;;;8377800;28;21225;-76
2021/12/17 13:43:50;;;;;;;42.17;9.37;;;;;5.10;98136.00;;;;8370715;28;20265;-74
2021/12/17 13:47:57;;;;;;;30.73;6.73;;;;;5.10;98131.00;;;;8382235;28;20228;-76
2021/12/17 13:52:00;;;;;;;33.37;9.80;;;;;5.00;98139.00;;;;8375109;28;20338;-73
2021/12/17 13:56:04;;;;;;;39.30;8.47;;;;;5.10;98123.00;;;;8375402;28;20227;-71
2021/12/17 14:00:13;;;;;;;43.03;9.90;;;;;5.10;98130.00;;;;8381327;28;20228;-72
2021/12/17 14:04:19;;;;;;;36.30;9.77;;;;;5.20;98134.00;;;;8374207;28;20228;-72
2021/12/17 14:08:23;;;;;;;46.07;10.50;;;;;5.20;98134.00;;;;8371378;28;20216;-74
2021/12/17 14:12:31;;;;;;;39.90;13.97;;;;;5.20;98144.00;;;;8374926;28;20700;-73
2021/12/17 14:17:01;;;;;;;21.70;7.80;;;;;5.20;98128.00;;;;8373731;28;20256;-73
2021/12/17 14:21:06;;;;;;;26.97;9.27;;;;;5.20;98134.00;;;;8373335;28;20220;-78
2021/12/17 14:25:32;;;;;;;31.13;9.60;;;;;5.10;98143.00;;;;8378360;28;20239;-79
2021/12/17 14:29:38;;;;;;;19.43;7.87;;;;;5.00;98135.00;;;;8370845;28;20254;-79
2021/12/17 14:33:47;;;;;;;27.33;8.97;;;;;5.00;98127.00;;;;8368057;28;20220;-78
2021/12/17 14:37:54;;;;;;;31.57;9.13;;;;;4.90;98130.00;;;;8377594;28;20226;-77
2021/12/17 14:42:00;;;;;;;29.83;8.83;;;;;4.90;98137.00;;;;8363793;28;20232;-78
2021/12/17 14:46:14;;;;;;;24.20;7.37;;;;;5.00;98125.00;;;;8378397;28;20216;-78
2021/12/17 15:03:29;;;;;;;17.93;6.37;;;;;4.70;98136.00;;;;8334126;28;20246;-78
2021/12/17 15:07:37;;;;;;;16.47;6.50;;;;;4.70;98135.00;;;;8370219;28;20757;-79
2021/12/17 15:11:42;;;;;;;15.17;6.33;;;;;4.70;98124.00;;;;8384903;28;20281;-77
2021/12/17 15:15:45;;;;;;;20.50;8.00;;;;;4.60;98119.00;;;;8378455;28;20239;-77
2021/12/17 15:19:49;;;;;;;17.63;6.60;;;;;4.60;98115.00;;;;8372698;28;20227;-78
2021/12/17 15:23:53;;;;;;;19.77;6.50;;;;;4.60;98107.00;;;;8378125;28;20741;-78
2021/12/17 15:27:57;;;;;;;33.00;18.57;;;;;4.70;98102.00;;;;8380731;28;20229;-78
2021/12/17 15:32:01;;;;;;;17.83;6.47;;;;;4.70;98103.00;;;;8374970;28;20655;-78
2021/12/17 15:36:06;;;;;;;16.90;7.47;;;;;4.60;98093.00;;;;8387434;28;20309;-77
2021/12/17 15:40:13;;;;;;;505.37;243.43;;;;;4.60;98093.00;;;;8372581;28;20602;-78
2021/12/17 15:44:17;;;;;;;151.83;59.63;;;;;4.60;98106.00;;;;8348698;28;20239;-78
2021/12/17 15:48:22;;;;;;;26.67;8.60;;;;;4.50;98099.00;;;;8367405;28;20630;-73
2021/12/17 15:52:36;;;;;;;23.87;8.73;;;;;4.30;98092.00;;;;8363664;28;20231;-82
2021/12/17 15:56:46;;;;;;;24.60;9.40;;;;;4.20;98103.00;;;;8368363;28;20223;-80
2021/12/17 16:00:50;;;;;;;21.73;9.50;;;;;4.10;98116.00;;;;8384456;28;20231;-79
2021/12/17 16:04:53;;;;;;;22.43;9.67;;;;;4.10;98115.00;;;;8386531;28;20635;-85
2021/12/17 16:08:59;;;;;;;32.33;12.93;;;;;4.10;98125.00;;;;8384020;28;20233;-81
2021/12/17 16:21:48;;;;;;;20.30;8.90;;;;;4.10;98133.00;;;;8376095;28;20218;-79
2021/12/17 16:25:51;;;;;;;33.63;11.07;;;;;4.10;98154.00;;;;8377222;28;20319;-80
2021/12/17 16:29:57;;;;;;;25.57;9.67;;;;;4.00;98156.00;;;;8373808;28;20248;-80
2021/12/17 16:34:02;;;;;;;17.60;8.17;;;;;4.10;98146.00;;;;8371671;28;20235;-79
2021/12/17 16:38:06;;;;;;;30.93;10.10;;;;;4.10;98142.00;;;;8376928;28;20594;-79
2021/12/17 16:42:16;;;;;;;27.27;9.90;;;;;4.20;98138.00;;;;8375263;28;20240;-80
2021/12/17 16:47:01;;;;;;;23.67;9.60;;;;;4.20;98122.00;;;;8371159;28;20227;-80
2021/12/17 16:50:52;;;;;;;23.57;8.97;;;;;4.10;98131.00;;;;8383429;28;20227;-81
2021/12/17 16:54:57;;;;;;;27.47;9.67;;;;;4.10;98116.00;;;;8349733;28;20233;-80
2021/12/17 16:59:01;;;;;;;24.33;10.23;;;;;4.00;98114.00;;;;8349679;28;20252;-80
2021/12/17 17:03:05;;;;;;;24.43;10.37;;;;;4.00;98133.00;;;;8377577;28;20239;-80
2021/12/17 17:07:10;;;;;;;25.10;10.83;;;;;4.00;98150.00;;;;8374237;28;20255;-82
2021/12/17 17:11:15;;;;;;;21.87;9.47;;;;;4.00;98147.00;;;;8371425;28;20682;-80
2021/12/17 17:15:18;;;;;;;26.83;10.10;;;;;3.80;98140.00;;;;8376250;28;20241;-84
2021/12/17 17:19:25;;;;;;;26.63;9.57;;;;;3.90;98145.00;;;;8374520;28;20238;-82
2021/12/17 17:23:29;;;;;;;24.03;9.90;;;;;3.90;98142.00;;;;8373487;28;20250;-79
2021/12/17 17:27:32;;;;;;;25.40;8.80;;;;;3.90;98152.00;;;;8354400;28;20259;-81
2021/12/17 17:31:36;;;;;;;23.57;10.13;;;;;3.80;98142.00;;;;8373260;28;20245;-82
2021/12/17 17:35:41;;;;;;;30.73;11.73;;;;;3.80;98147.00;;;;8380539;28;20257;-81
2021/12/17 17:39:44;;;;;;;30.77;10.33;;;;;3.90;98136.00;;;;8380992;28;20253;-80
2021/12/17 17:43:47;;;;;;;28.60;10.90;;;;;3.90;98137.00;;;;8370756;28;20236;-80
2021/12/17 17:47:51;;;;;;;36.17;16.50;;;;;3.90;98139.00;;;;8375433;28;20256;-78
2021/12/17 17:51:56;;;;;;;25.77;10.37;;;;;3.90;98155.00;;;;8370897;28;20279;-80
2021/12/17 17:56:06;;;;;;;24.00;9.53;;;;;3.90;98141.00;;;;8374851;28;20892;-80
2021/12/17 18:00:10;;;;;;;24.53;9.03;;;;;3.90;98141.00;;;;8377694;28;20261;-80
2021/12/17 18:04:15;;;;;;;27.20;10.07;;;;;3.80;98137.00;;;;8355892;28;20232;-81
2021/12/17 18:08:21;;;;;;;22.90;10.10;;;;;3.80;98152.00;;;;8354595;28;20802;-81
2021/12/17 18:12:26;;;;;;;27.70;11.90;;;;;3.70;98157.00;;;;8349443;28;20825;-81
2021/12/17 18:16:29;;;;;;;29.33;11.33;;;;;3.60;98148.00;;;;8350268;28;20233;-80
2021/12/17 18:20:33;;;;;;;25.10;9.73;;;;;3.70;98143.00;;;;8353509;28;20227;-80
2021/12/17 18:24:39;;;;;;;33.23;10.87;;;;;3.70;98143.00;;;;8353755;28;20908;-80
2021/12/17 18:28:42;;;;;;;23.97;10.50;;;;;3.60;98153.00;;;;8369819;28;20593;-82
2021/12/17 18:32:49;;;;;;;34.83;11.97;;;;;3.60;98151.00;;;;8351812;28;20238;-80
2021/12/17 18:36:53;;;;;;;28.77;11.00;;;;;3.70;98140.00;;;;8352788;28;20254;-80
2021/12/17 18:41:05;;;;;;;33.17;11.57;;;;;3.80;98141.00;;;;8352022;28;20232;-80
2021/12/17 18:45:09;;;;;;;29.43;10.63;;;;;3.80;98141.00;;;;8353972;28;20310;-80
2021/12/17 18:49:13;;;;;;;28.53;10.80;;;;;3.70;98146.00;;;;8361731;28;20602;-80
2021/12/17 18:53:17;;;;;;;26.87;11.23;;;;;3.70;98139.00;;;;8366427;28;20233;-80
2021/12/17 18:57:21;;;;;;;31.90;11.97;;;;;3.70;98144.00;;;;8377012;28;20265;-79
2021/12/17 19:01:25;;;;;;;23.53;10.13;;;;;3.60;98138.00;;;;8375551;28;20235;-79
2021/12/17 19:05:28;;;;;;;40.63;12.83;;;;;3.60;98149.00;;;;8372401;28;20258;-80
2021/12/17 19:09:32;;;;;;;30.83;12.20;;;;;3.60;98139.00;;;;8341097;28;20221;-79
2021/12/17 19:13:37;;;;;;;35.33;12.73;;;;;3.50;98140.00;;;;8358169;28;20251;-83
2021/12/17 19:17:40;;;;;;;34.97;13.23;;;;;3.50;98136.00;;;;8374164;28;20221;-80
2021/12/17 19:21:55;;;;;;;60.13;16.90;;;;;3.40;98144.00;;;;8375157;28;21025;-77
2021/12/17 19:25:58;;;;;;;43.53;15.57;;;;;3.40;98146.00;;;;8371543;28;20227;-78
2021/12/17 19:30:11;;;;;;;43.53;15.37;;;;;3.40;98150.00;;;;8378232;28;20710;-79
2021/12/17 19:34:15;;;;;;;42.43;14.40;;;;;3.40;98175.00;;;;8375887;28;20223;-78
2021/12/17 19:38:19;;;;;;;35.33;12.33;;;;;3.50;98176.00;;;;8358933;28;20220;-76
2021/12/17 19:42:23;;;;;;;50.37;15.20;;;;;3.40;98178.00;;;;8362229;28;20280;-78
2021/12/17 19:46:32;;;;;;;40.30;12.67;;;;;3.40;98166.00;;;;8358922;28;20261;-79
2021/12/17 19:50:35;;;;;;;59.90;15.60;;;;;3.30;98173.00;;;;8364786;28;20268;-77
2021/12/17 19:54:38;;;;;;;40.53;12.57;;;;;3.20;98169.00;;;;8378023;28;20250;-79
2021/12/17 19:58:42;;;;;;;33.83;12.47;;;;;3.10;98178.00;;;;8364780;28;20222;-81
2021/12/17 20:02:51;;;;;;;59.60;14.60;;;;;3.20;98166.00;;;;8377153;28;21684;-78
2021/12/17 20:06:55;;;;;;;39.03;12.70;;;;;3.10;98170.00;;;;8378855;28;20236;-82
2021/12/17 20:10:58;;;;;;;39.13;11.63;;;;;3.30;98176.00;;;;8374172;28;20234;-76
2021/12/17 20:15:02;;;;;;;32.70;12.53;;;;;3.40;98172.00;;;;8383057;28;20222;-77
2021/12/17 20:19:09;;;;;;;39.97;13.33;;;;;3.30;98174.00;;;;8372518;28;20225;-78
2021/12/17 20:23:13;;;;;;;37.93;12.83;;;;;3.30;98177.00;;;;8371722;28;20256;-76
2021/12/17 20:27:17;;;;;;;40.70;12.20;;;;;3.20;98183.00;;;;8376469;28;20241;-77
2021/12/17 20:31:22;;;;;;;43.43;12.10;;;;;3.10;98185.00;;;;8373386;28;20229;-75
2021/12/17 20:35:29;;;;;;;37.57;11.97;;;;;3.10;98194.00;;;;8364282;28;20766;-77
2021/12/17 20:39:32;;;;;;;39.77;11.53;;;;;3.10;98188.00;;;;8361724;28;20210;-77
2021/12/17 20:43:42;;;;;;;39.53;12.23;;;;;3.20;98199.00;;;;8375302;28;20711;-79
2021/12/17 20:47:45;;;;;;;58.87;13.87;;;;;3.20;98205.00;;;;8376653;28;20226;-81
2021/12/17 20:51:52;;;;;;;42.57;12.17;;;;;3.20;98190.00;;;;8376571;28;20231;-81
2021/12/17 20:55:55;;;;;;;40.10;11.83;;;;;3.30;98202.00;;;;8379058;28;21134;-78
2021/12/17 20:59:58;;;;;;;40.00;12.67;;;;;3.30;98194.00;;;;8372716;28;20237;-79
2021/12/17 21:04:02;;;;;;;44.97;12.57;;;;;3.30;98208.00;;;;8363099;28;20249;-81
2021/12/17 21:08:08;;;;;;;42.33;11.50;;;;;3.30;98225.00;;;;8367270;28;20272;-78
2021/12/17 21:12:11;;;;;;;52.10;13.40;;;;;3.30;98219.00;;;;8376097;28;20593;-80
2021/12/17 21:16:15;;;;;;;55.77;13.10;;;;;3.30;98221.00;;;;8371480;28;20751;-82
2021/12/17 21:20:22;;;;;;;41.03;12.57;;;;;3.40;98205.00;;;;8355364;28;20841;-81
2021/12/17 21:24:27;;;;;;;38.90;11.97;;;;;3.40;98198.00;;;;8367887;28;20240;-79
2021/12/17 21:28:31;;;;;;;39.20;11.53;;;;;3.50;98196.00;;;;8381004;28;20233;-84
2021/12/17 21:32:34;;;;;;;35.37;11.00;;;;;3.60;98183.00;;;;8379288;28;20877;-83
2021/12/17 21:36:38;;;;;;;48.43;12.47;;;;;3.50;98184.00;;;;8378570;28;20234;-84
2021/12/17 21:40:42;;;;;;;50.37;12.73;;;;;3.60;98165.00;;;;8380483;28;20228;-83
2021/12/17 21:44:49;;;;;;;48.17;12.50;;;;;3.50;98163.00;;;;8377657;28;20694;-83
2021/12/17 21:48:52;;;;;;;47.63;11.93;;;;;3.60;98163.00;;;;8376605;28;20273;-83
2021/12/17 21:52:57;;;;;;;52.10;12.30;;;;;3.60;98167.00;;;;8369703;28;20219;-84
2021/12/17 21:57:01;;;;;;;52.37;12.93;;;;;3.60;98165.00;;;;8374664;28;20224;-84
2021/12/17 22:01:06;;;;;;;56.40;12.90;;;;;3.70;98173.00;;;;8375248;28;20225;-82
2021/12/17 22:05:12;;;;;;;61.37;13.60;;;;;3.80;98183.00;;;;8369751;28;20245;-83
2021/12/17 22:09:15;;;;;;;49.30;12.63;;;;;3.80;98176.00;;;;8366028;28;20273;-82
2021/12/17 22:13:20;;;;;;;55.90;14.13;;;;;3.80;98172.00;;;;8374248;28;20235;-81
2021/12/17 22:17:23;;;;;;;66.87;13.80;;;;;3.80;98176.00;;;;8375642;28;20231;-82
2021/12/17 22:21:28;;;;;;;49.83;13.70;;;;;3.80;98183.00;;;;8379393;28;20696;-81
2021/12/17 22:25:33;;;;;;;76.60;14.07;;;;;3.80;98175.00;;;;8379094;28;20308;-81
2021/12/17 22:29:38;;;;;;;76.77;14.47;;;;;3.80;98173.00;;;;8379935;28;20315;-81
2021/12/17 22:33:41;;;;;;;66.37;14.80;;;;;3.80;98172.00;;;;8376024;28;20703;-81
2021/12/17 22:37:44;;;;;;;78.73;15.23;;;;;3.80;98179.00;;;;8377069;28;20231;-82
2021/12/17 22:41:48;;;;;;;71.13;15.43;;;;;3.80;98185.00;;;;8372986;28;20230;-84
2021/12/17 22:45:53;;;;;;;71.80;14.73;;;;;3.90;98193.00;;;;8381867;28;20242;-80
2021/12/17 22:49:56;;;;;;;81.30;15.50;;;;;3.90;98187.00;;;;8378186;28;20258;-79
2021/12/17 22:54:00;;;;;;;64.20;14.67;;;;;3.90;98177.00;;;;8375256;28;20254;-82
2021/12/17 22:58:04;;;;;;;74.03;13.97;;;;;3.90;98186.00;;;;8373171;28;20251;-82